createdAt,value
2024-04-16T00:00:53.076Z,0.76
2024-04-16T00:03:38.837Z,0.88
2024-04-16T00:06:26.036Z,0.98
2024-04-16T00:09:11.249Z,1.07
2024-04-16T00:12:01.298Z,1.03
2024-04-16T00:14:52.067Z,1.13
2024-04-16T00:17:37.432Z,1.20
2024-04-16T00:20:22.987Z,1.34
2024-04-16T00:23:08.565Z,1.24
2024-04-16T00:25:54.255Z,1.21
2024-04-16T00:28:41.131Z,1.10
2024-04-16T00:31:26.554Z,1.19
2024-04-16T00:34:13.398Z,1.36
2024-04-16T00:37:01.240Z,1.35
2024-04-16T00:39:48.076Z,1.02
2024-04-16T00:42:34.042Z,1.13
2024-04-16T00:45:21.912Z,1.38
2024-04-16T00:48:07.963Z,1.06
2024-04-16T00:50:53.324Z,1.28
2024-04-16T00:53:38.607Z,1.27
2024-04-16T00:56:26.775Z,1.16
2024-04-16T00:59:12.579Z,1.21
2024-04-16T01:02:01.633Z,1.15
2024-04-16T01:04:50.512Z,1.28
2024-04-16T01:07:38.540Z,1.00
2024-04-16T01:10:24.355Z,1.03
2024-04-16T01:13:11.790Z,1.09
2024-04-16T01:15:57.488Z,1.10
2024-04-16T01:18:43.472Z,1.01
2024-04-16T01:21:29.083Z,1.19
2024-04-16T01:24:14.641Z,1.26
2024-04-16T01:27:04.315Z,1.22
2024-04-16T01:30:04.680Z,0.95
2024-04-16T01:33:00.682Z,1.14
2024-04-16T01:35:45.945Z,0.92
2024-04-16T01:38:35.461Z,1.07
2024-04-16T01:41:22.993Z,1.18
2024-04-16T01:44:08.885Z,1.07
2024-04-16T01:46:54.041Z,1.05
2024-04-16T01:49:40.283Z,1.16
2024-04-16T01:52:25.684Z,0.96
2024-04-16T01:55:11.823Z,1.11
2024-04-16T01:57:58.978Z,1.04
2024-04-16T02:00:46.354Z,1.01
2024-04-16T02:03:37.695Z,0.90
2024-04-16T02:06:23.486Z,0.90
2024-04-16T02:09:09.860Z,0.90
2024-04-16T02:11:58.096Z,0.87
2024-04-16T02:14:43.595Z,0.81
2024-04-16T02:17:39.561Z,0.67
2024-04-16T02:20:25.234Z,0.23
2024-04-16T02:23:13.846Z,0.56
2024-04-16T02:25:59.023Z,0.48
2024-04-16T02:28:44.519Z,0.35
2024-04-16T02:31:31.311Z,0.37
2024-04-16T02:34:16.835Z,0.39
2024-04-16T02:37:02.758Z,0.23
2024-04-16T02:39:48.216Z,0.37
2024-04-16T02:42:33.833Z,0.28
2024-04-16T02:45:20.406Z,0.24
2024-04-16T02:48:06.291Z,0.23
2024-04-16T02:50:51.605Z,0.39
2024-04-16T02:53:36.981Z,0.36
2024-04-16T02:56:24.023Z,0.30
2024-04-16T02:59:11.019Z,0.24
2024-04-16T03:01:56.726Z,0.22
2024-04-16T03:04:45.419Z,0.31
2024-04-16T03:07:30.792Z,0.22
2024-04-16T03:10:16.315Z,0.14
2024-04-16T03:13:01.569Z,0.21
2024-04-16T03:15:47.097Z,0.14
2024-04-16T03:18:32.662Z,0.10
2024-04-16T03:21:17.852Z,0.21
2024-04-16T03:24:03.011Z,0.15
2024-04-16T03:26:48.550Z,0.23
2024-04-16T03:29:34.091Z,0.18
2024-04-16T03:32:19.492Z,0.12
2024-04-16T03:35:05.100Z,0.25
2024-04-16T03:37:50.423Z,0.12
2024-04-16T03:40:37.421Z,0.15
2024-04-16T03:43:22.999Z,0.13
2024-04-16T03:46:14.435Z,0.15
2024-04-16T03:48:59.985Z,0.32
2024-04-16T03:51:45.679Z,0.28
2024-04-16T03:54:31.292Z,0.21
2024-04-16T03:57:16.615Z,0.24
2024-04-16T04:00:01.807Z,0.17
2024-04-16T04:02:49.751Z,0.57
2024-04-16T04:05:35.445Z,0.62
2024-04-16T04:08:28.092Z,0.62
2024-04-16T04:11:19.098Z,0.44
2024-04-16T04:14:03.971Z,0.55
2024-04-16T04:16:49.487Z,0.79
2024-04-16T04:19:35.245Z,0.64
2024-04-16T04:22:24.282Z,0.64
2024-04-16T04:25:10.650Z,0.42
2024-04-16T04:27:56.352Z,0.58
2024-04-16T04:30:42.227Z,0.49
2024-04-16T04:33:27.674Z,0.60
2024-04-16T04:36:12.872Z,0.70
2024-04-16T04:38:58.179Z,0.72
2024-04-16T04:41:43.459Z,0.87
2024-04-16T04:44:30.151Z,0.79
2024-04-16T04:47:15.594Z,1.01
2024-04-16T04:50:03.982Z,0.80
2024-04-16T04:52:54.424Z,0.97
2024-04-16T04:55:39.832Z,0.77
2024-04-16T04:58:26.311Z,1.23
2024-04-16T05:01:12.356Z,1.19
2024-04-16T05:04:02.578Z,1.43
2024-04-16T05:06:49.213Z,1.39
2024-04-16T05:09:34.737Z,3.04
2024-04-16T05:12:24.452Z,4.85
2024-04-16T05:15:14.768Z,3.80
2024-04-16T05:18:07.845Z,1.47
2024-04-16T05:20:53.228Z,1.11
2024-04-16T05:23:44.263Z,2.48
2024-04-16T05:26:31.719Z,8.89
2024-04-16T05:29:17.389Z,4.55
2024-04-16T05:32:05.205Z,2.36
2024-04-16T05:34:50.459Z,1.89
2024-04-16T05:37:35.680Z,1.62
2024-04-16T05:40:20.930Z,3.20
2024-04-16T05:43:05.972Z,3.85
2024-04-16T05:45:51.160Z,3.53
2024-04-16T05:48:36.455Z,14.20
2024-04-16T05:51:21.701Z,31.02
2024-04-16T05:54:07.101Z,96.02
2024-04-16T05:56:52.353Z,55.29
2024-04-16T05:59:38.108Z,5.99
2024-04-16T06:02:23.401Z,5.61
2024-04-16T06:05:10.152Z,5.90
2024-04-16T06:07:55.664Z,5.54
2024-04-16T06:10:41.425Z,5.76
2024-04-16T06:13:36.536Z,5.94
2024-04-16T06:16:26.259Z,3.78
2024-04-16T06:19:15.664Z,3.30
2024-04-16T06:22:01.046Z,5.17
2024-04-16T06:24:47.235Z,2.68
2024-04-16T06:30:35.132Z,4.09
2024-04-16T06:33:20.322Z,3.18
2024-04-16T06:36:05.517Z,2.74
2024-04-16T06:42:06.653Z,2.02
2024-04-16T06:45:05.525Z,2.66
2024-04-16T06:57:13.683Z,3.24
2024-04-16T06:59:59.242Z,2.83
2024-04-16T07:02:44.480Z,2.91
2024-04-16T07:05:29.836Z,2.58
2024-04-16T07:08:14.957Z,20.40
2024-04-16T07:11:00.342Z,22.72
2024-04-16T07:13:45.624Z,18.46
2024-04-16T07:16:31.325Z,2.56
2024-04-16T07:19:16.528Z,5.12
2024-04-16T07:22:01.854Z,2.57
2024-04-16T07:24:47.707Z,2.86
2024-04-16T07:27:32.992Z,1.86
2024-04-16T07:30:18.534Z,2.88
2024-04-16T07:33:04.176Z,2.28
2024-04-16T07:35:50.549Z,2.79
2024-04-16T07:38:36.248Z,3.59
2024-04-16T07:41:21.721Z,2.99
2024-04-16T07:44:06.970Z,2.38
2024-04-16T07:46:54.216Z,3.39
2024-04-16T07:49:41.493Z,6.49
2024-04-16T07:52:27.020Z,4.09
2024-04-16T07:55:12.325Z,2.06
2024-04-16T07:57:57.526Z,2.73
2024-04-16T08:00:42.723Z,2.20
2024-04-16T08:03:27.931Z,1.90
2024-04-16T08:06:15.128Z,3.46
2024-04-16T08:09:07.974Z,2.89
2024-04-16T08:11:54.787Z,2.27
2024-04-16T08:14:43.254Z,2.08
2024-04-16T08:17:28.230Z,3.48
2024-04-16T08:20:15.844Z,16.19
2024-04-16T08:23:02.265Z,8.58
2024-04-16T08:28:46.495Z,3.40
2024-04-16T08:31:31.820Z,2.03
2024-04-16T08:34:19.126Z,1.45
2024-04-16T08:37:04.497Z,3.42
2024-04-16T08:39:49.660Z,13.27
2024-04-16T08:42:42.468Z,4.97
2024-04-16T08:45:27.674Z,7.43
2024-04-16T08:48:12.741Z,3.01
2024-04-16T08:50:58.172Z,2.13
2024-04-16T08:53:44.581Z,3.35
2024-04-16T08:56:30.167Z,2.64
2024-04-16T08:59:15.713Z,2.39
2024-04-16T09:02:01.265Z,2.78
2024-04-16T09:04:46.667Z,4.38
2024-04-16T09:07:31.719Z,7.27
2024-04-16T09:10:19.395Z,7.37
2024-04-16T09:13:04.928Z,3.40
2024-04-16T09:15:50.270Z,2.79
2024-04-16T09:18:39.736Z,2.17
2024-04-16T09:21:25.119Z,2.71
2024-04-16T09:24:10.303Z,2.86
2024-04-16T09:26:55.730Z,2.35
2024-04-16T09:29:40.796Z,6.47
2024-04-16T09:32:26.309Z,2.11
2024-04-16T09:35:11.906Z,1.69
2024-04-16T09:37:57.171Z,1.77
2024-04-16T09:40:42.529Z,1.72
2024-04-16T09:43:28.871Z,7.74
2024-04-16T09:46:14.314Z,4.34
2024-04-16T09:49:03.880Z,5.74
2024-04-16T09:51:49.095Z,1.47
2024-04-16T09:54:34.329Z,1.50
2024-04-16T09:57:21.031Z,1.80
2024-04-16T10:00:07.658Z,2.23
2024-04-16T10:03:04.625Z,2.71
2024-04-16T11:36:14.494Z,8.82
2024-04-16T11:39:01.982Z,18.08
2024-04-16T11:41:47.829Z,7.53
2024-04-16T11:44:43.666Z,6.60
2024-04-16T11:56:54.740Z,4.21
2024-04-16T12:12:32.039Z,1.70
2024-04-16T12:24:38.092Z,3.47
2024-04-16T12:27:23.789Z,2.83
2024-04-16T12:30:19.945Z,3.70
2024-04-16T12:33:15.508Z,1.47
2024-04-16T12:36:05.483Z,4.85
2024-04-16T12:38:50.480Z,4.76
2024-04-16T12:41:35.757Z,1.70
2024-04-16T12:44:31.478Z,2.07
2024-04-16T12:47:17.114Z,5.73
2024-04-16T12:50:06.000Z,16.74
2024-04-16T12:53:18.550Z,4.15
2024-04-16T12:56:11.290Z,3.22
2024-04-16T12:59:08.635Z,3.45
2024-04-16T13:02:13.617Z,2.11
2024-04-16T13:05:15.205Z,2.18
2024-04-16T13:23:17.972Z,3.37
2024-04-16T14:36:10.376Z,4.88
2024-04-16T14:39:06.043Z,1.79
2024-04-16T14:42:22.048Z,1.64
2024-04-16T14:51:34.195Z,2.20
2024-04-16T14:54:18.928Z,2.34
2024-04-16T15:37:52.509Z,6.36
2024-04-16T15:43:48.566Z,3.15
2024-04-16T15:46:38.404Z,9.76
2024-04-16T15:49:23.607Z,5.46
2024-04-16T15:52:12.343Z,3.48
2024-04-16T15:54:58.975Z,4.48
2024-04-16T15:57:44.331Z,6.54
2024-04-16T16:00:29.363Z,8.01
2024-04-16T16:03:24.570Z,10.30
2024-04-16T17:20:08.350Z,4.12
2024-04-16T17:22:53.568Z,1.56
2024-04-16T17:25:38.581Z,1.50
2024-04-16T17:28:24.302Z,3.39
2024-04-16T17:37:17.848Z,2.46
2024-04-16T17:43:04.389Z,3.33
2024-04-16T17:46:06.717Z,3.10
2024-04-16T18:13:59.558Z,1.23
2024-04-16T18:16:47.336Z,2.62
2024-04-16T18:19:45.205Z,2.16
2024-04-16T19:05:56.813Z,1.44
2024-04-16T19:08:42.476Z,1.90
2024-04-16T19:17:42.075Z,1.86
2024-04-16T19:20:32.540Z,7.24
2024-04-16T19:23:20.142Z,12.53
2024-04-16T19:26:14.828Z,12.84
2024-04-16T19:29:12.176Z,5.63
2024-04-16T19:31:57.864Z,3.46
2024-04-16T19:47:26.097Z,3.55
2024-04-16T19:56:25.241Z,1.36
2024-04-16T20:08:20.031Z,0.89
2024-04-16T20:17:23.232Z,1.01
2024-04-16T20:23:23.121Z,1.51
2024-04-16T20:26:08.696Z,1.27
2024-04-16T20:28:57.042Z,3.89
2024-04-16T20:31:46.691Z,4.44
2024-04-16T20:37:32.731Z,1.08
2024-04-16T20:49:28.309Z,0.91
2024-04-16T20:52:16.540Z,1.17
2024-04-16T20:55:05.511Z,5.32
2024-04-16T20:58:03.447Z,4.39
2024-04-16T21:00:58.172Z,1.52
2024-04-16T21:03:44.415Z,0.38
2024-04-16T21:06:30.270Z,0.71
2024-04-16T21:09:16.019Z,0.32
2024-04-16T21:12:01.284Z,0.27
2024-04-16T21:14:46.675Z,0.58
2024-04-16T21:17:32.036Z,0.25
2024-04-16T21:20:17.925Z,0.25
2024-04-16T21:26:02.457Z,0.75
2024-04-16T21:28:55.182Z,0.91
2024-04-16T21:31:44.507Z,1.07
2024-04-16T21:34:30.081Z,1.00
2024-04-16T21:37:18.978Z,1.29
2024-04-16T21:40:09.271Z,1.03
2024-04-16T21:43:02.828Z,1.04
2024-04-16T21:45:49.737Z,0.95
2024-04-16T21:48:38.486Z,1.09
2024-04-16T21:51:26.947Z,1.28
2024-04-16T21:54:20.036Z,1.05
2024-04-16T22:00:21.612Z,1.04
2024-04-16T22:03:22.137Z,1.29
2024-04-16T22:06:10.773Z,1.11
2024-04-16T22:08:56.279Z,1.43
2024-04-16T22:18:12.087Z,0.83
2024-04-16T22:21:04.673Z,0.85
2024-04-16T22:23:59.592Z,0.96
2024-04-16T22:26:49.165Z,1.10
2024-04-16T22:29:41.016Z,0.98
2024-04-16T22:35:26.038Z,0.54
2024-04-16T22:41:23.060Z,5.40
2024-04-16T22:47:28.052Z,0.59
2024-04-16T22:59:35.683Z,0.76
2024-04-16T23:02:58.942Z,0.96
2024-04-16T23:34:35.732Z,1.13
2024-04-16T23:36:43.327Z,1.64
2024-04-16T23:39:40.046Z,1.51
2024-04-16T23:48:37.462Z,1.55
2024-04-16T23:51:30.418Z,1.49
2024-04-16T23:57:26.105Z,1.04
